Terminal Aerodrome Forecast
Issued by NWS King Salmon, AK

Home | Current Version | Previous Version | Text Only | Print | Product List | Glossary On
Versions: 1 2 3 4 5 6 7 8 9 10 11 12 13 14 15 16 17 18 19 20 21 22 23 24 25 26 27 28 29 30 31 32 33 34 35 36 37 38 39 40 41 42 43 44 45 46 47 48 49 50
000
FTAK31 PANC 272335
TAFAKN
TAF
PAKN 272335Z 2800/2824 26010KT P6SM VCSH SCT030 BKN060
      TEMPO 2800/2804 26010G18KT P6SM -SHRA BKN030
     FM280400 23007KT P6SM VCSH SCT025 OVC040
     FM281000 19006KT 2SM BR FEW005 BKN012 OVC020
     FM281300 18005KT 1SM -RA BR OVC005
     FM282100 21006KT P6SM FEW005 BKN012=

USA.gov is the U.S. government's official web portal to all federal, state and local government web resources and services.